createdAt,value
2023-05-08T00:01:40.951Z,26.05
2023-05-08T00:06:42.428Z,26.23
2023-05-08T00:11:43.920Z,28.45
2023-05-08T00:16:45.584Z,25.92
2023-05-08T00:21:47.278Z,24.88
2023-05-08T00:26:48.824Z,24.30
2023-05-08T00:31:50.340Z,24.15
2023-05-08T00:36:52.137Z,26.35
2023-05-08T00:41:53.592Z,24.50
2023-05-08T00:46:55.289Z,28.58
2023-05-08T00:51:57.481Z,27.83
2023-05-08T00:57:00.916Z,24.13
2023-05-08T01:02:02.735Z,26.90
2023-05-08T01:07:04.450Z,23.50
2023-05-08T01:12:21.207Z,22.67
2023-05-08T01:17:42.925Z,22.20
2023-05-08T01:23:02.867Z,22.83
2023-05-08T01:28:31.047Z,24.38
2023-05-08T01:33:40.968Z,22.92
2023-05-08T01:39:03.535Z,25.23
2023-05-08T01:44:13.728Z,23.98
2023-05-08T01:49:25.419Z,24.63
2023-05-08T01:54:28.764Z,24.27
2023-05-08T01:59:32.707Z,28.58
2023-05-08T02:04:34.927Z,24.98
2023-05-08T02:09:37.869Z,25.38
2023-05-08T02:14:41.996Z,24.92
2023-05-08T02:19:44.596Z,27.55
2023-05-08T02:24:46.619Z,25.52
2023-05-08T02:29:49.187Z,24.80
2023-05-08T02:35:02.631Z,25.15
2023-05-08T02:40:08.172Z,25.58
2023-05-08T02:45:12.158Z,27.50
2023-05-08T02:50:21.866Z,24.65
2023-05-08T02:55:41.869Z,25.67
2023-05-08T03:01:06.741Z,26.40
2023-05-08T03:06:13.382Z,27.08
2023-05-08T03:11:22.640Z,26.67
2023-05-08T03:16:26.667Z,26.45
2023-05-08T03:21:30.505Z,27.15
2023-05-08T03:26:32.334Z,26.23
2023-05-08T03:31:35.329Z,27.80
2023-05-08T03:36:36.974Z,26.98
2023-05-08T03:41:38.583Z,27.95
2023-05-08T03:46:42.263Z,29.38
2023-05-08T03:51:44.722Z,27.75
2023-05-08T03:56:47.865Z,28.35
2023-05-08T04:01:55.272Z,29.30
2023-05-08T04:12:13.770Z,28.70
2023-05-08T04:17:22.564Z,27.63
2023-05-08T04:22:27.063Z,26.17
2023-05-08T04:27:29.288Z,26.63
2023-05-08T04:32:31.922Z,25.50
2023-05-08T04:37:33.596Z,26.70
2023-05-08T04:42:36.676Z,24.70
2023-05-08T04:47:38.284Z,25.45
2023-05-08T04:52:39.856Z,25.60
2023-05-08T04:57:41.450Z,28.17
2023-05-08T05:02:43.031Z,24.80
2023-05-08T05:07:44.583Z,24.88
2023-05-08T05:12:46.133Z,24.42
2023-05-08T05:17:47.685Z,24.77
2023-05-08T05:22:49.364Z,27.08
2023-05-08T05:27:50.959Z,26.42
2023-05-08T05:32:52.485Z,27.65
2023-05-08T05:37:54.227Z,26.00
2023-05-08T05:42:55.756Z,24.65
2023-05-08T05:47:57.549Z,25.80
2023-05-08T05:52:59.044Z,24.95
2023-05-08T05:58:00.500Z,28.35
2023-05-08T06:03:03.014Z,25.73
2023-05-08T06:08:05.765Z,26.02
2023-05-08T06:13:08.917Z,23.52
2023-05-08T06:18:10.517Z,24.98
2023-05-08T06:23:12.426Z,26.23
2023-05-08T06:28:13.951Z,24.77
2023-05-08T06:33:15.587Z,24.77
2023-05-08T06:38:17.182Z,26.08
2023-05-08T06:43:18.720Z,26.77
2023-05-08T06:48:20.761Z,25.70
2023-05-08T06:53:22.345Z,25.75
2023-05-08T06:58:23.876Z,28.20
2023-05-08T07:03:25.623Z,26.42
2023-05-08T07:08:27.176Z,28.23
2023-05-08T07:13:28.845Z,25.98
2023-05-08T07:18:30.678Z,26.15
2023-05-08T07:23:32.221Z,25.73
2023-05-08T07:28:33.935Z,29.55
2023-05-08T07:33:35.554Z,27.13
2023-05-08T07:38:37.132Z,25.20
2023-05-08T07:43:39.198Z,27.30
2023-05-08T07:48:40.698Z,29.15
2023-05-08T07:53:42.512Z,27.13
2023-05-08T07:58:45.996Z,26.10
2023-05-08T08:03:47.921Z,27.83
2023-05-08T08:08:49.535Z,26.63
2023-05-08T08:13:51.094Z,24.25
2023-05-08T08:18:55.587Z,26.10
2023-05-08T08:23:57.341Z,24.33
2023-05-08T08:28:58.870Z,24.60
2023-05-08T08:34:00.434Z,25.73
2023-05-08T08:39:02.015Z,26.35
2023-05-08T08:44:03.642Z,25.05
2023-05-08T08:49:09.712Z,24.17
2023-05-08T08:54:17.437Z,23.95
2023-05-08T08:59:19.363Z,23.55
2023-05-08T09:04:21.000Z,24.05
2023-05-08T09:09:23.428Z,21.50
2023-05-08T09:14:26.633Z,26.75
2023-05-08T09:19:29.248Z,21.92
2023-05-08T09:24:59.752Z,21.10
2023-05-08T09:30:05.848Z,20.30
2023-05-08T09:35:09.074Z,20.45
2023-05-08T09:40:19.212Z,21.27
2023-05-08T09:45:31.735Z,19.90
2023-05-08T09:50:34.080Z,21.33
2023-05-08T09:55:48.827Z,21.67
2023-05-08T10:00:51.568Z,22.88
2023-05-08T10:05:53.151Z,21.83
2023-05-08T10:10:54.815Z,21.00
2023-05-08T10:15:56.902Z,25.50
2023-05-08T10:21:01.553Z,24.83
2023-05-08T10:26:09.913Z,24.83
2023-05-08T10:31:14.469Z,25.00
2023-05-08T10:36:17.110Z,27.80
2023-05-08T10:41:19.911Z,26.70
2023-05-08T10:47:05.808Z,29.73
2023-05-08T10:52:12.304Z,28.40
2023-05-08T10:57:15.003Z,32.00
2023-05-08T11:02:18.291Z,29.02
2023-05-08T11:07:20.031Z,32.55
2023-05-08T11:12:26.259Z,32.00
2023-05-08T11:17:28.837Z,33.63
2023-05-08T11:22:34.512Z,34.25
2023-05-08T11:27:49.133Z,39.47
2023-05-08T11:33:06.367Z,41.35
2023-05-08T11:43:58.331Z,43.03
2023-05-08T11:49:01.649Z,43.15
2023-05-08T11:54:03.876Z,45.47
2023-05-08T11:59:06.428Z,42.45
2023-05-08T12:04:13.297Z,52.08
2023-05-08T12:14:18.479Z,63.80
2023-05-08T12:19:20.037Z,66.10
2023-05-08T12:24:25.483Z,75.82
2023-05-08T12:29:27.046Z,80.47
2023-05-08T12:34:28.894Z,80.65
2023-05-08T12:39:35.665Z,86.13
2023-05-08T12:44:37.179Z,72.57
2023-05-08T12:49:38.793Z,76.13
2023-05-08T12:54:52.305Z,73.88
2023-05-08T13:00:04.842Z,70.65
2023-05-08T13:05:06.731Z,69.25
2023-05-08T13:10:09.130Z,66.90
2023-05-08T13:15:10.935Z,71.72
2023-05-08T13:20:12.584Z,69.43
2023-05-08T13:25:14.622Z,69.95
2023-05-08T13:30:16.717Z,66.38
2023-05-08T13:35:19.460Z,63.10
2023-05-08T13:40:21.080Z,59.85
2023-05-08T13:45:22.589Z,65.20
2023-05-08T13:50:24.147Z,61.83
2023-05-08T13:55:25.879Z,66.40
2023-05-08T14:00:28.214Z,64.75
2023-05-08T14:05:29.879Z,67.57
2023-05-08T14:10:31.395Z,64.70
2023-05-08T14:15:37.306Z,64.25
2023-05-08T14:20:39.305Z,64.80
2023-05-08T14:25:40.912Z,56.45
2023-05-08T14:30:42.484Z,42.25
2023-05-08T14:35:43.961Z,44.25
2023-05-08T14:40:45.476Z,48.72
2023-05-08T14:45:47.021Z,41.92
2023-05-08T14:50:48.578Z,40.72
2023-05-08T14:55:50.439Z,44.05
2023-05-08T15:00:52.167Z,47.40
2023-05-08T15:05:53.771Z,43.22
2023-05-08T15:10:55.706Z,45.67
2023-05-08T15:15:58.375Z,48.00
2023-05-08T15:20:59.896Z,47.28
2023-05-08T15:26:02.633Z,47.67
2023-05-08T15:31:04.908Z,47.28
2023-05-08T15:36:06.614Z,42.15
2023-05-08T15:41:12.134Z,36.63
2023-05-08T15:46:15.489Z,33.42
2023-05-08T15:51:17.365Z,36.00
2023-05-08T15:56:24.584Z,39.40
2023-05-08T16:01:26.261Z,41.92
2023-05-08T16:06:27.775Z,44.45
2023-05-08T16:11:32.770Z,41.63
2023-05-08T16:16:34.331Z,44.97
2023-05-08T16:21:36.089Z,43.17
2023-05-08T16:26:37.624Z,43.45
2023-05-08T16:31:39.205Z,39.17
2023-05-08T16:36:40.701Z,38.55
2023-05-08T16:41:42.319Z,37.83
2023-05-08T16:46:44.110Z,36.15
2023-05-08T16:51:45.716Z,37.80
2023-05-08T16:56:47.236Z,35.40
2023-05-08T17:01:48.933Z,36.22
2023-05-08T17:06:50.459Z,36.67
2023-05-08T17:11:52.047Z,37.97
2023-05-08T17:16:53.570Z,37.08
2023-05-08T17:21:55.692Z,34.92
2023-05-08T17:26:58.654Z,28.45
2023-05-08T17:32:00.327Z,25.23
2023-05-08T17:37:01.880Z,27.52
2023-05-08T17:42:03.421Z,26.75
2023-05-08T17:47:04.967Z,24.95
2023-05-08T17:52:06.560Z,30.40
2023-05-08T17:57:08.234Z,30.58
2023-05-08T18:02:09.832Z,29.13
2023-05-08T18:07:11.359Z,28.85
2023-05-08T18:12:12.918Z,32.78
2023-05-08T18:17:19.209Z,31.10
2023-05-08T18:22:20.873Z,29.53
2023-05-08T18:27:22.709Z,34.33
2023-05-08T18:32:24.270Z,30.27
2023-05-08T18:37:25.865Z,37.15
2023-05-08T18:42:27.337Z,37.05
2023-05-08T18:47:28.953Z,27.73
2023-05-08T18:52:30.497Z,32.47
2023-05-08T18:57:31.998Z,28.17
2023-05-08T19:02:33.666Z,32.28
2023-05-08T19:07:35.295Z,30.77
2023-05-08T19:12:36.823Z,35.80
2023-05-08T19:17:38.413Z,35.38
2023-05-08T19:22:39.933Z,34.95
2023-05-08T19:27:41.662Z,31.27
2023-05-08T19:32:43.233Z,34.40
2023-05-08T19:37:45.077Z,34.58
2023-05-08T19:42:46.617Z,36.72
2023-05-08T19:47:52.062Z,36.53
2023-05-08T19:52:53.726Z,33.25
2023-05-08T19:57:55.228Z,37.85
2023-05-08T20:02:56.924Z,35.53
2023-05-08T20:07:58.566Z,35.95
2023-05-08T20:13:00.651Z,35.25
2023-05-08T20:18:02.333Z,36.75
2023-05-08T20:23:04.602Z,34.20
2023-05-08T20:28:06.194Z,37.63
2023-05-08T20:33:07.759Z,37.20
2023-05-08T20:38:09.772Z,46.03
2023-05-08T20:43:11.381Z,43.80
2023-05-08T20:48:12.929Z,41.40
2023-05-08T20:53:14.512Z,35.72
2023-05-08T20:58:16.095Z,37.88
2023-05-08T21:03:17.634Z,30.80
2023-05-08T21:08:26.436Z,36.05
2023-05-08T21:13:28.189Z,34.15
2023-05-08T21:18:29.700Z,33.33
2023-05-08T21:23:31.239Z,32.20
2023-05-08T21:28:32.734Z,29.08
2023-05-08T21:33:34.388Z,33.08
2023-05-08T21:38:36.025Z,36.58
2023-05-08T21:43:37.627Z,29.15
2023-05-08T21:48:39.178Z,29.58
2023-05-08T21:53:40.797Z,29.30
2023-05-08T21:58:42.495Z,31.27
2023-05-08T22:03:44.040Z,26.73
2023-05-08T22:08:46.061Z,23.90
2023-05-08T22:13:47.575Z,22.77
2023-05-08T22:18:49.171Z,28.95
2023-05-08T22:23:50.673Z,29.30
2023-05-08T22:28:52.393Z,28.20
2023-05-08T22:33:53.951Z,28.73
2023-05-08T22:38:55.775Z,27.55
2023-05-08T22:43:57.367Z,32.38
2023-05-08T22:48:59.999Z,29.38
2023-05-08T22:54:01.528Z,37.20
2023-05-08T22:59:02.991Z,39.25
2023-05-08T23:04:04.594Z,37.42
2023-05-08T23:09:06.847Z,37.08
2023-05-08T23:14:08.371Z,43.47
2023-05-08T23:19:10.119Z,36.30
2023-05-08T23:24:11.663Z,39.33
2023-05-08T23:29:13.187Z,30.80
2023-05-08T23:34:14.645Z,34.22
2023-05-08T23:39:17.267Z,30.00
2023-05-08T23:44:19.115Z,32.15
2023-05-08T23:49:20.759Z,29.48
2023-05-08T23:54:22.201Z,33.25
2023-05-08T23:59:23.674Z,35.65
